createdAt,value
2023-05-14T04:15:23.774Z,99.99
2023-05-14T04:16:23.818Z,99.99
2023-05-14T04:17:23.871Z,99.99
2023-05-14T04:18:23.731Z,99.99
2023-05-14T04:19:23.725Z,99.99
2023-05-14T04:20:23.859Z,99.99
2023-05-14T04:21:23.734Z,99.99
2023-05-14T04:22:23.681Z,99.99
2023-05-14T04:23:23.667Z,99.99
2023-05-14T04:24:23.653Z,99.99
2023-05-14T04:25:23.655Z,99.99
2023-05-14T04:26:23.644Z,99.99
2023-05-14T04:27:23.629Z,99.99
2023-05-14T04:28:23.595Z,99.99
2023-05-14T04:29:23.590Z,99.99
2023-05-14T04:30:23.829Z,99.99
2023-05-14T04:31:23.629Z,99.99
2023-05-14T04:32:23.585Z,99.99
2023-05-14T04:33:23.545Z,99.99
2023-05-14T04:34:23.524Z,99.99
2023-05-14T04:35:25.035Z,99.99
2023-05-14T04:36:23.495Z,99.99
2023-05-14T04:37:23.488Z,99.99
2023-05-14T04:38:23.467Z,99.99
2023-05-14T04:39:23.468Z,99.99
2023-05-14T04:40:23.598Z,99.99
2023-05-14T04:41:23.439Z,99.99
2023-05-14T04:42:23.427Z,99.99
2023-05-14T04:43:23.412Z,99.99
2023-05-14T04:44:23.401Z,99.99
2023-05-14T04:45:23.403Z,99.66
2023-05-14T04:46:23.427Z,99.15
2023-05-14T04:47:23.379Z,98.74
2023-05-14T04:48:23.352Z,98.43
2023-05-14T04:49:23.375Z,98.28
2023-05-14T04:50:23.478Z,98.28
2023-05-14T04:51:23.300Z,98.28
2023-05-14T04:52:23.288Z,98.38
2023-05-14T04:53:23.283Z,98.28
2023-05-14T04:54:23.290Z,98.49
2023-05-14T04:55:23.258Z,98.69
2023-05-14T04:56:23.234Z,98.69
2023-05-14T04:57:23.245Z,98.58
2023-05-14T04:58:23.217Z,98.24
2023-05-14T04:59:23.223Z,98.24
2023-05-14T05:00:23.480Z,98.24
2023-05-14T05:01:23.199Z,98.33
2023-05-14T05:02:23.163Z,98.44
2023-05-14T05:03:23.228Z,98.24
2023-05-14T05:04:23.138Z,98.03
2023-05-14T05:05:23.130Z,98.13
2023-05-14T05:06:23.109Z,98.33
2023-05-14T05:07:23.101Z,97.92
2023-05-14T05:08:23.096Z,97.62
2023-05-14T05:09:23.075Z,97.31
2023-05-14T05:10:23.357Z,97.31
2023-05-14T05:11:23.051Z,97.31
2023-05-14T05:12:23.052Z,97.31
2023-05-14T05:13:23.048Z,97.82
2023-05-14T05:14:23.011Z,98.19
2023-05-14T05:15:24.713Z,98.19
2023-05-14T05:16:23.099Z,98.08
2023-05-14T05:17:23.021Z,98.29
2023-05-14T05:18:22.978Z,98.70
2023-05-14T05:19:35.815Z,98.65
2023-05-14T05:20:24.063Z,98.35
2023-05-14T05:21:22.917Z,98.04
2023-05-14T05:22:22.922Z,97.74
2023-05-14T05:23:22.893Z,97.63
2023-05-14T05:24:22.877Z,97.53
2023-05-14T05:25:22.868Z,97.33
2023-05-14T05:26:22.857Z,97.33
2023-05-14T05:27:22.861Z,97.17
2023-05-14T05:28:22.823Z,97.08
2023-05-14T05:29:22.810Z,96.46
2023-05-14T05:30:23.056Z,96.62
2023-05-14T05:31:22.894Z,96.21
2023-05-14T05:32:22.830Z,95.70
2023-05-14T05:33:22.762Z,95.25
2023-05-14T05:34:22.747Z,95.15
2023-05-14T05:35:22.732Z,94.33
2023-05-14T05:36:22.731Z,94.02
2023-05-14T05:37:22.729Z,93.37
2023-05-14T05:38:22.693Z,93.16
2023-05-14T05:39:22.678Z,93.16
2023-05-14T05:40:22.849Z,93.02
2023-05-14T05:41:22.675Z,92.81
2023-05-14T05:42:22.692Z,91.89
2023-05-14T05:43:22.628Z,91.59
2023-05-14T05:44:22.626Z,91.69
2023-05-14T05:45:22.663Z,90.83
2023-05-14T05:46:22.669Z,90.63
2023-05-14T05:47:22.627Z,90.42
2023-05-14T05:48:22.587Z,90.42
2023-05-14T05:49:22.551Z,89.61
2023-05-14T05:50:22.873Z,89.00
2023-05-14T05:51:22.522Z,88.34
2023-05-14T05:52:22.505Z,88.04
2023-05-14T05:53:22.519Z,87.84
2023-05-14T05:54:22.486Z,87.38
2023-05-14T05:55:22.484Z,86.16
2023-05-14T05:56:22.446Z,85.75
2023-05-14T05:57:23.207Z,86.37
2023-05-14T05:58:22.428Z,86.13
2023-05-14T05:59:22.444Z,86.02
2023-05-14T06:00:22.727Z,84.80
2023-05-14T06:01:22.412Z,84.86
2023-05-14T06:02:22.473Z,84.56
2023-05-14T06:03:22.414Z,84.01
2023-05-14T06:04:22.479Z,84.52
2023-05-14T06:05:22.390Z,83.70
2023-05-14T06:06:22.334Z,83.50
2023-05-14T06:07:22.318Z,82.99
2023-05-14T06:08:22.431Z,83.09
2023-05-14T06:09:22.405Z,82.75
2023-05-14T06:10:22.623Z,82.54
2023-05-14T06:11:22.523Z,82.65
2023-05-14T06:12:22.259Z,81.73
2023-05-14T06:13:22.252Z,82.34
2023-05-14T06:14:22.245Z,82.81
2023-05-14T06:15:22.226Z,82.31
2023-05-14T06:16:22.241Z,80.68
2023-05-14T06:17:22.265Z,80.88
2023-05-14T06:18:22.196Z,80.88
2023-05-14T06:19:22.467Z,81.39
2023-05-14T06:20:22.372Z,80.47
2023-05-14T06:21:22.197Z,80.03
2023-05-14T06:22:22.137Z,80.13
2023-05-14T06:23:22.154Z,80.24
2023-05-14T06:24:22.101Z,79.63
2023-05-14T06:25:22.197Z,79.42
2023-05-14T06:26:22.076Z,80.24
2023-05-14T06:27:22.095Z,79.83
2023-05-14T06:28:22.057Z,80.19
2023-05-14T06:29:22.033Z,81.21
2023-05-14T06:30:22.210Z,80.40
2023-05-14T06:31:22.050Z,79.12
2023-05-14T06:32:22.081Z,81.01
2023-05-14T06:33:21.980Z,82.90
2023-05-14T06:34:21.965Z,81.24
2023-05-14T06:35:21.942Z,81.34
2023-05-14T06:36:21.936Z,79.17
2023-05-14T06:37:21.948Z,79.58
2023-05-14T06:38:21.912Z,79.68
2023-05-14T06:39:21.901Z,79.13
2023-05-14T06:40:22.214Z,79.24
2023-05-14T06:41:21.892Z,78.02
2023-05-14T06:42:21.870Z,77.41
2023-05-14T06:43:21.845Z,78.53
2023-05-14T06:44:21.830Z,78.28
2023-05-14T06:45:21.815Z,78.39
2023-05-14T06:46:21.834Z,78.89
2023-05-14T06:47:21.813Z,78.25
2023-05-14T06:48:21.866Z,76.93
2023-05-14T06:49:21.774Z,77.00
2023-05-14T06:50:21.974Z,75.82
2023-05-14T06:51:21.788Z,75.92
2023-05-14T06:52:21.730Z,76.73
2023-05-14T06:53:21.718Z,76.39
2023-05-14T06:54:21.737Z,75.62
2023-05-14T06:55:21.698Z,75.11
2023-05-14T06:56:21.694Z,76.23
2023-05-14T06:57:21.667Z,76.39
2023-05-14T06:58:21.650Z,74.77
2023-05-14T06:59:21.655Z,76.66
2023-05-14T07:00:21.986Z,74.94
2023-05-14T07:01:21.677Z,74.33
2023-05-14T07:02:21.658Z,74.94
2023-05-14T07:03:21.582Z,74.33
2023-05-14T07:04:21.649Z,74.43
2023-05-14T07:05:21.571Z,75.65
2023-05-14T07:06:21.546Z,74.70
2023-05-14T07:07:21.538Z,72.28
2023-05-14T07:08:21.540Z,73.59
2023-05-14T07:09:21.504Z,73.75
2023-05-14T07:10:21.609Z,73.86
2023-05-14T07:11:21.478Z,73.32
2023-05-14T07:12:21.472Z,73.93
2023-05-14T07:13:21.449Z,73.69
2023-05-14T07:14:21.445Z,71.57
2023-05-14T07:15:21.457Z,71.37
2023-05-14T07:16:21.413Z,71.57
2023-05-14T07:17:21.465Z,71.73
2023-05-14T07:18:21.379Z,71.26
2023-05-14T07:19:21.383Z,71.53
2023-05-14T07:20:21.424Z,71.77
2023-05-14T07:21:21.349Z,72.34
2023-05-14T07:22:21.339Z,73.45
2023-05-14T07:23:21.324Z,71.70
2023-05-14T07:24:21.326Z,70.69
2023-05-14T07:25:21.318Z,70.19
2023-05-14T07:26:21.282Z,70.69
2023-05-14T07:27:21.285Z,68.88
2023-05-14T07:28:21.252Z,69.99
2023-05-14T07:29:21.260Z,70.09
2023-05-14T07:30:21.390Z,69.89
2023-05-14T07:31:21.298Z,69.28
2023-05-14T07:32:21.198Z,71.47
2023-05-14T07:33:21.208Z,69.65
2023-05-14T07:34:21.207Z,69.92
2023-05-14T07:35:21.169Z,69.12
2023-05-14T07:36:21.158Z,68.31
2023-05-14T07:37:23.666Z,68.21
2023-05-14T07:38:21.142Z,68.11
2023-05-14T07:39:21.119Z,67.60
2023-05-14T07:40:21.197Z,67.60
2023-05-14T07:41:21.093Z,67.74
2023-05-14T07:42:34.521Z,67.54
2023-05-14T07:43:22.071Z,67.74
2023-05-14T07:44:21.047Z,68.44
2023-05-14T07:45:21.031Z,68.04
2023-05-14T07:46:21.027Z,68.14
2023-05-14T07:47:21.070Z,66.42
2023-05-14T07:48:21.051Z,68.54
2023-05-14T07:49:21.006Z,66.66
2023-05-14T07:50:21.006Z,66.96
2023-05-14T07:51:20.956Z,67.54
2023-05-14T07:52:21.056Z,67.94
2023-05-14T07:53:20.934Z,66.09
2023-05-14T07:54:20.915Z,67.30
2023-05-14T07:55:20.908Z,66.19
2023-05-14T07:56:20.901Z,66.30
2023-05-14T07:57:20.893Z,65.49
2023-05-14T07:58:20.859Z,67.40
2023-05-14T07:59:20.855Z,66.09
2023-05-14T08:00:20.937Z,67.50
2023-05-14T08:01:20.859Z,67.47
2023-05-14T08:02:20.948Z,66.83
2023-05-14T08:03:20.918Z,65.33
2023-05-14T08:04:20.890Z,67.24
2023-05-14T08:05:20.788Z,68.65
2023-05-14T08:06:20.781Z,68.65
2023-05-14T08:07:20.757Z,70.43
2023-05-14T08:08:20.740Z,69.49
2023-05-14T08:09:20.721Z,69.35
2023-05-14T08:10:20.777Z,68.95
2023-05-14T08:11:20.750Z,67.55
2023-05-14T08:12:20.689Z,67.41
2023-05-14T08:13:20.676Z,67.24
2023-05-14T08:14:20.675Z,67.74
2023-05-14T08:15:20.670Z,67.55
2023-05-14T08:16:20.665Z,67.41
2023-05-14T08:17:20.645Z,68.02
2023-05-14T08:18:20.610Z,65.80
2023-05-14T08:19:20.645Z,65.53
2023-05-14T08:20:20.593Z,66.14
2023-05-14T08:21:20.571Z,67.44
2023-05-14T08:22:20.581Z,66.20
2023-05-14T08:23:20.558Z,64.80
2023-05-14T08:24:20.524Z,65.50
2023-05-14T08:25:20.533Z,66.38
2023-05-14T08:26:20.507Z,67.25
2023-05-14T08:27:20.500Z,65.44
2023-05-14T08:28:20.475Z,65.14
2023-05-14T08:29:20.482Z,65.01
2023-05-14T08:30:20.474Z,63.70
2023-05-14T08:31:20.506Z,62.63
2023-05-14T08:32:23.805Z,63.76
2023-05-14T08:33:20.417Z,64.77
2023-05-14T08:34:20.413Z,64.17
2023-05-14T08:35:20.391Z,63.64
2023-05-14T08:36:20.377Z,63.73
2023-05-14T08:37:20.362Z,64.01
2023-05-14T08:38:20.352Z,64.21
2023-05-14T08:39:20.361Z,63.28
2023-05-14T08:40:20.335Z,62.57
2023-05-14T08:41:20.338Z,61.90
2023-05-14T08:42:20.316Z,61.40
2023-05-14T08:43:20.337Z,61.60
2023-05-14T08:44:20.315Z,61.90
2023-05-14T08:45:20.280Z,62.60
2023-05-14T08:46:20.253Z,61.10
2023-05-14T08:47:20.240Z,61.33
2023-05-14T08:48:20.337Z,63.43
2023-05-14T08:49:20.221Z,62.43
2023-05-14T08:50:27.716Z,62.03
2023-05-14T08:51:20.198Z,63.31
2023-05-14T08:52:20.193Z,63.20
2023-05-14T08:53:20.307Z,61.97
2023-05-14T08:54:20.142Z,61.87
2023-05-14T08:55:20.149Z,62.17
2023-05-14T08:56:20.122Z,61.47
2023-05-14T08:57:20.168Z,61.10
2023-05-14T08:58:20.119Z,62.00
2023-05-14T08:59:20.085Z,63.33
2023-05-14T09:00:20.077Z,61.63
2023-05-14T09:01:20.132Z,63.10
2023-05-14T09:02:20.062Z,62.40
2023-05-14T09:03:20.061Z,62.40
2023-05-14T09:04:20.073Z,60.69
2023-05-14T09:05:20.008Z,62.87
2023-05-14T09:06:19.987Z,63.24
2023-05-14T09:07:19.993Z,62.01
2023-05-14T09:08:19.970Z,61.91
2023-05-14T09:09:19.957Z,62.28
2023-05-14T09:10:19.934Z,59.78
2023-05-14T09:11:19.936Z,60.78
2023-05-14T09:12:19.925Z,60.78
2023-05-14T09:13:19.914Z,60.38
2023-05-14T09:14:19.895Z,60.01
2023-05-14T09:15:19.897Z,60.51
2023-05-14T09:16:19.937Z,60.24
2023-05-14T09:17:19.860Z,61.31
2023-05-14T09:18:19.835Z,60.71
2023-05-14T09:19:19.925Z,60.11
2023-05-14T09:20:19.802Z,59.64
2023-05-14T09:21:19.863Z,59.83
2023-05-14T09:22:19.795Z,60.14
2023-05-14T09:23:19.765Z,60.33
2023-05-14T09:24:19.753Z,61.04
2023-05-14T09:25:19.742Z,61.91
2023-05-14T09:26:19.739Z,61.08
2023-05-14T09:27:19.717Z,62.75
2023-05-14T09:28:19.699Z,59.82
2023-05-14T09:29:19.689Z,58.05
2023-05-14T09:30:19.693Z,58.05
2023-05-14T09:31:19.722Z,57.15
2023-05-14T09:32:19.649Z,56.60
2023-05-14T09:33:19.638Z,58.50
2023-05-14T09:34:19.629Z,57.93
2023-05-14T09:35:19.627Z,59.11
2023-05-14T09:36:19.593Z,60.35
2023-05-14T09:37:19.584Z,60.22
2023-05-14T09:38:19.576Z,58.09
2023-05-14T09:39:19.578Z,58.76
2023-05-14T09:40:19.562Z,55.87
2023-05-14T09:41:19.535Z,55.54
2023-05-14T09:42:19.520Z,54.64
2023-05-14T09:43:19.509Z,56.74
2023-05-14T09:44:19.515Z,56.44
2023-05-14T09:45:19.505Z,54.62
2023-05-14T09:46:19.464Z,54.92
2023-05-14T09:47:19.479Z,58.12
2023-05-14T09:48:19.439Z,58.00
2023-05-14T09:49:19.444Z,57.87
2023-05-14T09:50:19.419Z,55.54
2023-05-14T09:51:19.402Z,54.91
2023-05-14T09:52:19.419Z,54.41
2023-05-14T09:53:19.390Z,56.98
2023-05-14T09:54:19.380Z,54.66
2023-05-14T09:55:19.352Z,52.59
2023-05-14T09:56:19.342Z,56.18
2023-05-14T09:57:19.330Z,54.99
2023-05-14T09:58:19.309Z,54.44
2023-05-14T09:59:19.314Z,55.24
2023-05-14T10:00:19.301Z,54.47
2023-05-14T10:01:19.315Z,56.16
2023-05-14T10:02:19.253Z,56.57
2023-05-14T10:03:20.010Z,54.64
2023-05-14T10:04:19.265Z,53.77
2023-05-14T10:05:19.228Z,55.59
2023-05-14T10:06:19.219Z,57.67
2023-05-14T10:07:19.196Z,56.24
2023-05-14T10:08:19.190Z,56.61
2023-05-14T10:09:19.183Z,54.79
2023-05-14T10:10:19.152Z,52.76
2023-05-14T10:11:19.145Z,52.97
2023-05-14T10:12:19.125Z,53.61
2023-05-14T10:13:19.134Z,54.84
2023-05-14T10:14:19.110Z,55.17
2023-05-14T10:15:19.089Z,56.16
2023-05-14T10:16:19.097Z,58.21
2023-05-14T10:17:19.129Z,55.99
2023-05-14T10:18:19.142Z,54.61
2023-05-14T10:19:19.096Z,54.82
2023-05-14T10:20:19.053Z,54.99
2023-05-14T10:21:19.008Z,55.76
2023-05-14T10:22:19.024Z,54.06
2023-05-14T10:23:18.998Z,54.14
2023-05-14T10:24:18.984Z,53.52
2023-05-14T10:25:18.958Z,56.18
2023-05-14T10:26:18.961Z,56.15
2023-05-14T10:27:18.944Z,53.66
2023-05-14T10:28:18.918Z,53.49
2023-05-14T10:29:18.914Z,54.86
2023-05-14T10:30:18.953Z,52.67
2023-05-14T10:31:18.893Z,51.87
2023-05-14T10:32:18.885Z,53.04
2023-05-14T10:33:18.975Z,54.41
2023-05-14T10:34:18.855Z,52.79
2023-05-14T10:35:18.834Z,52.49
2023-05-14T10:36:18.873Z,49.91
2023-05-14T10:37:18.819Z,48.79
2023-05-14T10:38:18.808Z,48.29
2023-05-14T10:39:18.780Z,51.97
2023-05-14T10:40:18.864Z,48.99
2023-05-14T10:41:18.763Z,49.78
2023-05-14T10:42:18.760Z,47.99
2023-05-14T10:43:18.726Z,48.29
2023-05-14T10:44:18.721Z,47.32
2023-05-14T10:45:18.710Z,50.10
2023-05-14T10:46:18.716Z,49.43
2023-05-14T10:47:18.677Z,49.60
2023-05-14T10:48:18.711Z,52.99
2023-05-14T10:49:28.258Z,50.38
2023-05-14T10:50:19.702Z,48.41
2023-05-14T10:51:18.710Z,46.56
2023-05-14T10:52:18.633Z,48.70
2023-05-14T10:53:18.596Z,49.30
2023-05-14T10:54:18.611Z,49.27
2023-05-14T10:55:18.586Z,48.40
2023-05-14T10:56:18.564Z,49.72
2023-05-14T10:57:18.542Z,49.12
2023-05-14T10:58:18.536Z,50.42
2023-05-14T10:59:18.531Z,51.59
2023-05-14T11:00:18.562Z,51.45
2023-05-14T11:01:18.507Z,50.35
2023-05-14T11:02:18.489Z,48.78
2023-05-14T11:03:18.482Z,47.48
2023-05-14T11:04:18.532Z,48.58
2023-05-14T11:05:18.460Z,51.15
2023-05-14T11:06:18.440Z,50.00
2023-05-14T11:07:18.425Z,48.71
2023-05-14T11:08:18.429Z,49.16
2023-05-14T11:09:18.411Z,49.83
2023-05-14T11:10:18.504Z,50.50
2023-05-14T11:11:18.375Z,50.88
2023-05-14T11:12:18.383Z,47.80
2023-05-14T11:13:18.349Z,47.82
2023-05-14T11:14:18.352Z,47.77
2023-05-14T11:15:18.342Z,48.86
2023-05-14T11:17:18.359Z,46.67
2023-05-14T11:18:18.293Z,47.86
2023-05-14T11:19:18.393Z,47.29
2023-05-14T11:20:18.296Z,45.70
2023-05-14T11:21:18.298Z,48.50
2023-05-14T11:22:18.242Z,49.03
2023-05-14T11:23:18.233Z,48.03
2023-05-14T11:24:18.230Z,49.93
2023-05-14T11:25:18.201Z,49.80
2023-05-14T11:26:20.785Z,47.99
2023-05-14T11:27:18.169Z,49.16
2023-05-14T11:28:18.179Z,48.36
2023-05-14T11:29:18.157Z,48.32
2023-05-14T11:30:18.299Z,47.89
2023-05-14T11:31:18.163Z,47.02
2023-05-14T11:32:18.119Z,46.01
2023-05-14T11:33:18.120Z,47.67
2023-05-14T11:34:18.092Z,47.85
2023-05-14T11:35:18.125Z,46.76
2023-05-14T11:36:18.081Z,46.71
2023-05-14T11:37:18.041Z,45.47
2023-05-14T11:38:18.047Z,47.13
2023-05-14T11:39:18.027Z,47.39
2023-05-14T11:40:18.074Z,48.33
2023-05-14T11:41:17.998Z,53.49
2023-05-14T11:42:17.998Z,50.33
2023-05-14T11:43:17.996Z,48.79
2023-05-14T11:44:17.974Z,47.97
2023-05-14T11:45:17.961Z,47.73
2023-05-14T11:46:18.074Z,47.00
2023-05-14T11:47:17.925Z,48.54
2023-05-14T11:48:17.909Z,48.28
2023-05-14T11:49:17.892Z,48.96
2023-05-14T11:50:17.884Z,47.94
2023-05-14T11:51:17.885Z,46.95
2023-05-14T11:52:17.868Z,48.81
2023-05-14T11:53:17.839Z,46.38
2023-05-14T11:54:17.831Z,47.33
2023-05-14T11:55:17.824Z,45.10
2023-05-14T11:56:17.834Z,43.40
2023-05-14T11:57:17.833Z,42.50
2023-05-14T11:58:17.772Z,45.23
2023-05-14T11:59:17.768Z,43.02
2023-05-14T12:00:17.752Z,44.36
2023-05-14T12:01:17.836Z,47.22
2023-05-14T12:02:17.871Z,44.62
2023-05-14T12:03:17.861Z,48.17
2023-05-14T12:04:17.746Z,46.73
2023-05-14T12:05:17.689Z,41.77
2023-05-14T12:06:17.681Z,41.82
2023-05-14T12:07:17.669Z,43.15
2023-05-14T12:08:17.670Z,44.76
2023-05-14T12:09:17.638Z,44.32
2023-05-14T12:10:17.628Z,47.17
2023-05-14T12:11:17.633Z,42.88
2023-05-14T12:12:17.602Z,43.90
2023-05-14T12:13:17.602Z,43.88
2023-05-14T12:14:17.568Z,44.40
2023-05-14T12:15:17.581Z,43.88
2023-05-14T12:16:17.634Z,45.27
2023-05-14T12:17:17.543Z,44.06
2023-05-14T12:18:24.555Z,44.27
2023-05-14T12:19:18.556Z,44.79
2023-05-14T12:20:17.513Z,45.11
2023-05-14T12:21:17.488Z,46.37
2023-05-14T12:22:17.465Z,46.54
2023-05-14T12:23:17.466Z,49.40
2023-05-14T12:24:17.446Z,49.04
2023-05-14T12:25:17.518Z,47.14
2023-05-14T12:26:17.433Z,46.67
2023-05-14T12:27:17.409Z,45.36
2023-05-14T12:28:17.402Z,46.28
2023-05-14T12:29:17.411Z,43.06
2023-05-14T12:30:21.610Z,41.87
2023-05-14T12:31:17.401Z,41.79
2023-05-14T12:32:17.350Z,43.36
2023-05-14T12:33:17.344Z,42.35
2023-05-14T12:34:17.339Z,42.96
2023-05-14T12:35:17.309Z,43.54
2023-05-14T12:36:21.726Z,42.77
2023-05-14T12:37:18.292Z,42.61
2023-05-14T12:38:17.273Z,45.64
2023-05-14T12:39:17.277Z,44.78
2023-05-14T12:40:17.272Z,42.09
2023-05-14T12:41:17.241Z,43.46
2023-05-14T12:42:17.224Z,43.80
2023-05-14T12:43:17.224Z,40.82
2023-05-14T12:44:17.219Z,39.73
2023-05-14T12:45:17.184Z,40.53
2023-05-14T12:46:17.332Z,42.62
2023-05-14T12:47:17.243Z,40.76
2023-05-14T12:48:17.154Z,41.10
2023-05-14T12:49:17.133Z,42.60
2023-05-14T12:50:17.120Z,41.28
2023-05-14T12:51:17.111Z,43.13
2023-05-14T12:52:33.023Z,41.93
2023-05-14T12:53:18.111Z,43.13
2023-05-14T12:54:17.072Z,43.42
2023-05-14T12:55:17.158Z,42.93
2023-05-14T12:56:17.041Z,43.23
2023-05-14T12:57:17.047Z,43.10
2023-05-14T12:58:17.022Z,44.20
2023-05-14T12:59:17.016Z,42.31
2023-05-14T13:00:17.020Z,42.80
2023-05-14T13:01:17.021Z,41.82
2023-05-14T13:02:17.513Z,42.72
2023-05-14T13:03:17.014Z,42.91
2023-05-14T13:04:17.014Z,45.45
2023-05-14T13:05:16.950Z,42.85
2023-05-14T13:06:16.920Z,44.01
2023-05-14T13:07:16.920Z,45.38
2023-05-14T13:08:16.903Z,43.70
2023-05-14T13:09:16.876Z,44.04
2023-05-14T13:10:16.869Z,42.61
2023-05-14T13:11:16.858Z,46.31
2023-05-14T13:12:16.854Z,44.99
2023-05-14T13:13:16.830Z,47.17
2023-05-14T13:14:18.327Z,47.28
2023-05-14T13:15:16.820Z,47.47
2023-05-14T13:16:17.002Z,48.14
2023-05-14T13:17:16.816Z,46.49
2023-05-14T13:18:16.768Z,44.76
2023-05-14T13:19:16.783Z,46.80
2023-05-14T13:20:16.733Z,46.14
2023-05-14T13:21:16.745Z,42.61
2023-05-14T13:22:16.719Z,40.03
2023-05-14T13:23:16.701Z,40.80
2023-05-14T13:24:16.690Z,40.37
2023-05-14T13:25:16.697Z,43.13
2023-05-14T13:26:16.679Z,40.84
2023-05-14T13:27:16.667Z,41.71
2023-05-14T13:28:16.637Z,42.00
2023-05-14T13:29:16.635Z,39.25
2023-05-14T13:30:16.622Z,40.03
2023-05-14T13:31:16.665Z,39.44
2023-05-14T13:32:16.585Z,40.25
2023-05-14T13:33:16.570Z,40.62
2023-05-14T13:34:16.570Z,38.49
2023-05-14T13:35:16.573Z,40.29
2023-05-14T13:36:16.546Z,40.29
2023-05-14T13:37:16.532Z,40.78
2023-05-14T13:38:16.531Z,39.78
2023-05-14T13:39:16.518Z,41.06
2023-05-14T13:40:16.498Z,40.55
2023-05-14T13:41:16.491Z,39.64
2023-05-14T13:42:16.465Z,39.76
2023-05-14T13:43:16.451Z,39.26
2023-05-14T13:44:16.456Z,39.64
2023-05-14T13:45:16.436Z,37.95
2023-05-14T13:46:16.471Z,36.86
2023-05-14T13:47:16.408Z,40.51
2023-05-14T13:48:16.427Z,36.84
2023-05-14T13:49:16.391Z,40.01
2023-05-14T13:50:16.372Z,39.79
2023-05-14T13:51:16.367Z,39.31
2023-05-14T13:52:16.354Z,39.28
2023-05-14T13:53:16.335Z,37.10
2023-05-14T13:54:16.322Z,37.85
2023-05-14T13:55:16.304Z,41.61
2023-05-14T13:56:16.294Z,38.18
2023-05-14T13:57:16.279Z,39.68
2023-05-14T13:58:16.286Z,38.98
2023-05-14T13:59:16.263Z,39.26
2023-05-14T14:00:16.258Z,37.98
2023-05-14T14:01:16.263Z,36.42
2023-05-14T14:02:16.230Z,37.36
2023-05-14T14:03:16.218Z,37.89
2023-05-14T14:04:16.186Z,40.88
2023-05-14T14:05:16.209Z,39.22
2023-05-14T14:06:16.161Z,39.59
2023-05-14T14:07:16.152Z,42.05
2023-05-14T14:08:23.340Z,38.92
2023-05-14T14:09:17.133Z,39.81
2023-05-14T14:10:16.113Z,38.62
2023-05-14T14:11:16.112Z,39.58
2023-05-14T14:12:16.122Z,38.57
2023-05-14T14:13:16.143Z,37.64
2023-05-14T14:14:16.060Z,38.02
2023-05-14T14:15:16.055Z,36.91
2023-05-14T14:16:16.071Z,35.52
2023-05-14T14:17:16.044Z,34.61
2023-05-14T14:18:16.017Z,38.65
2023-05-14T14:19:17.075Z,35.89
2023-05-14T14:20:15.983Z,37.30
2023-05-14T14:21:15.984Z,37.18
2023-05-14T14:22:15.974Z,38.64
2023-05-14T14:23:15.976Z,39.89
2023-05-14T14:24:15.930Z,43.88
2023-05-14T14:25:15.934Z,42.19
2023-05-14T14:26:16.042Z,42.61
2023-05-14T14:27:15.896Z,44.14
2023-05-14T14:28:15.915Z,44.36
2023-05-14T14:29:15.876Z,45.28
2023-05-14T14:30:15.893Z,46.47
2023-05-14T14:31:15.882Z,48.16
2023-05-14T14:32:15.832Z,46.97
2023-05-14T14:33:15.866Z,48.38
2023-05-14T14:34:15.819Z,49.18
2023-05-14T14:35:15.806Z,49.30
2023-05-14T14:36:15.796Z,51.25
2023-05-14T14:37:15.793Z,53.06
2023-05-14T14:38:15.767Z,55.71
2023-05-14T14:39:15.765Z,56.84
2023-05-14T14:40:15.748Z,56.59
2023-05-14T14:41:15.730Z,59.92
2023-05-14T14:42:15.713Z,62.35
2023-05-14T14:43:15.694Z,60.78
2023-05-14T14:44:15.693Z,58.78
2023-05-14T14:45:15.684Z,58.58
2023-05-14T14:46:15.695Z,59.81
2023-05-14T14:47:15.660Z,60.51
2023-05-14T14:48:15.641Z,56.73
2023-05-14T14:49:15.641Z,57.03
2023-05-14T14:50:22.681Z,56.23
2023-05-14T14:51:15.589Z,57.76
2023-05-14T14:52:15.595Z,57.26
2023-05-14T14:53:15.560Z,57.86
2023-05-14T14:54:15.571Z,58.18
2023-05-14T14:55:16.287Z,57.59
2023-05-14T14:56:15.542Z,56.35
2023-05-14T14:57:15.531Z,56.85
2023-05-14T14:58:15.577Z,56.73
2023-05-14T14:59:15.506Z,55.52
2023-05-14T15:00:15.487Z,55.50
2023-05-14T15:01:15.515Z,57.28
2023-05-14T15:02:15.495Z,57.78
2023-05-14T15:03:15.561Z,56.07
2023-05-14T15:04:15.445Z,55.35
2023-05-14T15:05:15.424Z,55.47
2023-05-14T15:06:15.406Z,54.77
2023-05-14T15:07:15.396Z,53.94
2023-05-14T15:08:15.427Z,52.74
2023-05-14T15:09:15.364Z,56.42
2023-05-14T15:10:15.356Z,57.42
2023-05-14T15:11:15.341Z,59.30
2023-05-14T15:12:15.341Z,59.69
2023-05-14T15:13:15.367Z,58.19
2023-05-14T15:14:15.320Z,56.20
2023-05-14T15:15:15.292Z,54.49
2023-05-14T15:16:15.314Z,53.39
2023-05-14T15:17:15.267Z,54.86
2023-05-14T15:18:15.275Z,55.36
2023-05-14T15:19:15.299Z,54.39
2023-05-14T15:20:15.234Z,54.79
2023-05-14T15:21:15.224Z,55.87
2023-05-14T15:22:15.215Z,56.14
2023-05-14T15:23:15.203Z,56.61
2023-05-14T15:24:15.180Z,54.02
2023-05-14T15:25:15.170Z,56.38
2023-05-14T15:26:15.151Z,52.49
2023-05-14T15:27:15.155Z,54.49
2023-05-14T15:28:15.123Z,53.47
2023-05-14T15:29:15.106Z,53.77
2023-05-14T15:30:15.121Z,51.59
2023-05-14T15:31:15.126Z,50.99
2023-05-14T15:32:15.088Z,51.82
2023-05-14T15:33:15.052Z,52.02
2023-05-14T15:34:15.070Z,50.99
2023-05-14T15:35:15.043Z,50.77
2023-05-14T15:36:15.212Z,52.25
2023-05-14T15:37:15.024Z,50.32
2023-05-14T15:38:15.037Z,48.46
2023-05-14T15:39:14.981Z,49.18
2023-05-14T15:40:14.973Z,50.47
2023-05-14T15:41:14.960Z,48.48
2023-05-14T15:42:14.954Z,49.60
2023-05-14T15:43:14.926Z,50.27
2023-05-14T15:44:14.920Z,48.88
2023-05-14T15:45:14.915Z,48.48
2023-05-14T15:46:14.970Z,47.58
2023-05-14T15:47:14.876Z,50.37
2023-05-14T15:48:14.904Z,50.27
2023-05-14T15:49:14.854Z,50.15
2023-05-14T15:50:14.864Z,48.16
2023-05-14T15:51:14.865Z,48.08
2023-05-14T15:52:14.820Z,47.40
2023-05-14T15:53:14.800Z,48.80
2023-05-14T15:54:14.790Z,50.10
2023-05-14T15:55:14.799Z,49.48
2023-05-14T15:56:14.781Z,49.38
2023-05-14T15:57:14.752Z,48.20
2023-05-14T15:58:14.743Z,48.00
2023-05-14T15:59:14.762Z,48.30
2023-05-14T16:00:14.728Z,47.08
2023-05-14T16:01:14.771Z,48.18
2023-05-14T16:02:14.708Z,48.48
2023-05-14T16:03:14.786Z,50.85
2023-05-14T16:04:14.670Z,48.88
2023-05-14T16:05:14.667Z,49.27
2023-05-14T16:06:14.715Z,51.35
2023-05-14T16:07:14.635Z,50.45
2023-05-14T16:08:14.628Z,49.13
2023-05-14T16:09:14.604Z,48.83
2023-05-14T16:10:14.627Z,48.63
2023-05-14T16:11:14.578Z,50.80
2023-05-14T16:12:14.570Z,49.21
2023-05-14T16:13:14.557Z,49.70
2023-05-14T16:14:14.556Z,51.29
2023-05-14T16:15:14.543Z,50.80
2023-05-14T16:16:14.546Z,52.49
2023-05-14T16:17:14.513Z,48.01
2023-05-14T16:18:14.497Z,52.62
2023-05-14T16:19:14.526Z,48.35
2023-05-14T16:20:14.479Z,49.48
2023-05-14T16:21:14.462Z,51.17
2023-05-14T16:22:14.461Z,51.15
2023-05-14T16:23:14.437Z,48.75
2023-05-14T16:24:14.435Z,50.95
2023-05-14T16:25:14.412Z,49.25
2023-05-14T16:26:14.403Z,50.92
2023-05-14T16:27:14.400Z,51.12
2023-05-14T16:28:14.376Z,48.31
2023-05-14T16:29:14.369Z,50.50
2023-05-14T16:30:14.348Z,50.00
2023-05-14T16:31:14.342Z,50.55
2023-05-14T16:32:14.347Z,51.59
2023-05-14T16:33:14.359Z,52.32
2023-05-14T16:34:14.314Z,52.64
2023-05-14T16:35:14.283Z,53.02
2023-05-14T16:36:14.278Z,53.44
2023-05-14T16:37:14.265Z,53.74
2023-05-14T16:38:14.259Z,54.24
2023-05-14T16:39:14.231Z,52.87
2023-05-14T16:40:14.228Z,53.09
2023-05-14T16:41:14.212Z,52.89
2023-05-14T16:42:14.198Z,51.79
2023-05-14T16:43:14.192Z,52.59
2023-05-14T16:44:14.169Z,53.12
2023-05-14T16:45:14.167Z,54.85
2023-05-14T16:46:14.396Z,56.67
2023-05-14T16:47:14.143Z,60.01
2023-05-14T16:48:14.168Z,60.86
2023-05-14T16:49:14.104Z,62.40
2023-05-14T16:50:14.091Z,63.81
2023-05-14T16:51:14.073Z,64.61
2023-05-14T16:52:14.073Z,65.41
2023-05-14T16:53:14.050Z,65.21
2023-05-14T16:54:14.054Z,66.35
2023-05-14T16:55:14.038Z,67.05
2023-05-14T16:56:14.023Z,67.25
2023-05-14T16:57:13.998Z,67.35
2023-05-14T16:58:13.980Z,65.94
2023-05-14T16:59:13.982Z,66.85
2023-05-14T17:00:13.979Z,65.34
2023-05-14T17:01:13.992Z,64.64
2023-05-14T17:02:13.947Z,65.84
2023-05-14T17:03:13.961Z,64.64
2023-05-14T17:04:13.972Z,63.31
2023-05-14T17:05:13.887Z,64.81
2023-05-14T17:06:13.889Z,65.81
2023-05-14T17:07:13.860Z,69.53
2023-05-14T17:08:13.873Z,68.89